sensor_id;sensor_type;location;lat;lon;timestamp;temperature;humidity
37646;DHT22;23489;49.600;6.138;2023-05-29T00:01:24;16.30;91.30
37646;DHT22;23489;49.600;6.138;2023-05-29T00:03:50;16.30;91.40
37646;DHT22;23489;49.600;6.138;2023-05-29T00:06:16;16.30;91.60
37646;DHT22;23489;49.600;6.138;2023-05-29T00:08:42;16.30;91.70
37646;DHT22;23489;49.600;6.138;2023-05-29T00:11:07;16.30;91.90
37646;DHT22;23489;49.600;6.138;2023-05-29T00:13:33;16.20;92.00
37646;DHT22;23489;49.600;6.138;2023-05-29T00:15:58;16.20;92.20
37646;DHT22;23489;49.600;6.138;2023-05-29T00:18:26;16.20;92.40
37646;DHT22;23489;49.600;6.138;2023-05-29T00:20:52;16.20;92.60
37646;DHT22;23489;49.600;6.138;2023-05-29T00:23:18;16.10;92.80
37646;DHT22;23489;49.600;6.138;2023-05-29T00:25:44;16.10;93.00
37646;DHT22;23489;49.600;6.138;2023-05-29T00:28:09;16.00;93.20
37646;DHT22;23489;49.600;6.138;2023-05-29T00:30:35;16.00;93.40
37646;DHT22;23489;49.600;6.138;2023-05-29T00:33:00;15.90;93.60
37646;DHT22;23489;49.600;6.138;2023-05-29T00:35:28;15.90;93.80
37646;DHT22;23489;49.600;6.138;2023-05-29T00:37:53;15.90;94.00
37646;DHT22;23489;49.600;6.138;2023-05-29T00:40:19;15.90;94.20
37646;DHT22;23489;49.600;6.138;2023-05-29T00:42:45;15.80;94.30
37646;DHT22;23489;49.600;6.138;2023-05-29T00:45:10;15.80;94.40
37646;DHT22;23489;49.600;6.138;2023-05-29T00:47:36;15.80;94.70
37646;DHT22;23489;49.600;6.138;2023-05-29T00:50:02;15.70;94.90
37646;DHT22;23489;49.600;6.138;2023-05-29T00:52:29;15.70;95.10
37646;DHT22;23489;49.600;6.138;2023-05-29T00:54:54;15.60;95.60
37646;DHT22;23489;49.600;6.138;2023-05-29T00:57:20;15.50;96.10
37646;DHT22;23489;49.600;6.138;2023-05-29T00:59:48;15.40;96.30
37646;DHT22;23489;49.600;6.138;2023-05-29T01:02:14;15.40;96.80
37646;DHT22;23489;49.600;6.138;2023-05-29T01:04:40;15.30;97.20
37646;DHT22;23489;49.600;6.138;2023-05-29T01:07:05;15.20;97.60
37646;DHT22;23489;49.600;6.138;2023-05-29T01:09:32;15.10;97.90
37646;DHT22;23489;49.600;6.138;2023-05-29T01:12:14;15.10;98.40
37646;DHT22;23489;49.600;6.138;2023-05-29T01:17:35;15.00;99.50
37646;DHT22;23489;49.600;6.138;2023-05-29T01:22:35;14.80;99.90
37646;DHT22;23489;49.600;6.138;2023-05-29T01:27:43;14.80;99.90
37646;DHT22;23489;49.600;6.138;2023-05-29T01:30:10;14.70;99.90
37646;DHT22;23489;49.600;6.138;2023-05-29T01:32:36;14.70;99.90
37646;DHT22;23489;49.600;6.138;2023-05-29T01:35:02;14.70;99.90
37646;DHT22;23489;49.600;6.138;2023-05-29T01:37:28;14.70;99.90
37646;DHT22;23489;49.600;6.138;2023-05-29T01:39:55;14.70;99.90
37646;DHT22;23489;49.600;6.138;2023-05-29T01:42:21;14.80;99.90
37646;DHT22;23489;49.600;6.138;2023-05-29T01:44:47;14.80;99.90
37646;DHT22;23489;49.600;6.138;2023-05-29T01:47:15;14.70;99.90
37646;DHT22;23489;49.600;6.138;2023-05-29T01:49:41;14.70;99.90
37646;DHT22;23489;49.600;6.138;2023-05-29T01:52:07;14.70;99.90
37646;DHT22;23489;49.600;6.138;2023-05-29T01:54:33;14.70;99.90
37646;DHT22;23489;49.600;6.138;2023-05-29T01:56:59;14.60;99.90
37646;DHT22;23489;49.600;6.138;2023-05-29T01:59:25;14.60;99.90
37646;DHT22;23489;49.600;6.138;2023-05-29T02:01:51;14.50;99.90
37646;DHT22;23489;49.600;6.138;2023-05-29T02:04:17;14.50;99.90
37646;DHT22;23489;49.600;6.138;2023-05-29T02:06:42;14.40;99.90
37646;DHT22;23489;49.600;6.138;2023-05-29T02:09:08;14.40;99.90
37646;DHT22;23489;49.600;6.138;2023-05-29T02:11:34;14.30;99.90
37646;DHT22;23489;49.600;6.138;2023-05-29T02:14:00;14.30;99.90
37646;DHT22;23489;49.600;6.138;2023-05-29T02:16:27;14.20;99.90
37646;DHT22;23489;49.600;6.138;2023-05-29T02:18:53;14.20;99.90
37646;DHT22;23489;49.600;6.138;2023-05-29T02:21:18;14.10;99.90
37646;DHT22;23489;49.600;6.138;2023-05-29T02:23:44;14.10;99.90
37646;DHT22;23489;49.600;6.138;2023-05-29T02:26:12;14.00;99.90
37646;DHT22;23489;49.600;6.138;2023-05-29T02:28:38;14.00;99.90
37646;DHT22;23489;49.600;6.138;2023-05-29T02:31:05;14.00;99.90
37646;DHT22;23489;49.600;6.138;2023-05-29T02:33:30;14.00;99.90
37646;DHT22;23489;49.600;6.138;2023-05-29T02:35:56;13.90;99.90
37646;DHT22;23489;49.600;6.138;2023-05-29T02:38:23;13.90;99.90
37646;DHT22;23489;49.600;6.138;2023-05-29T02:40:49;13.90;99.90
37646;DHT22;23489;49.600;6.138;2023-05-29T02:43:14;13.90;99.90
37646;DHT22;23489;49.600;6.138;2023-05-29T02:45:40;13.90;99.90
37646;DHT22;23489;49.600;6.138;2023-05-29T02:48:06;13.80;99.90
37646;DHT22;23489;49.600;6.138;2023-05-29T02:50:32;13.80;99.90
37646;DHT22;23489;49.600;6.138;2023-05-29T02:52:57;13.80;99.90
37646;DHT22;23489;49.600;6.138;2023-05-29T02:55:23;13.80;99.90
37646;DHT22;23489;49.600;6.138;2023-05-29T02:57:48;13.70;99.90
37646;DHT22;23489;49.600;6.138;2023-05-29T03:00:18;13.70;99.90
37646;DHT22;23489;49.600;6.138;2023-05-29T03:02:44;13.70;99.90
37646;DHT22;23489;49.600;6.138;2023-05-29T03:05:10;13.70;99.90
37646;DHT22;23489;49.600;6.138;2023-05-29T03:07:36;13.70;99.90
37646;DHT22;23489;49.600;6.138;2023-05-29T03:10:02;13.60;99.90
37646;DHT22;23489;49.600;6.138;2023-05-29T03:12:29;13.60;99.90
37646;DHT22;23489;49.600;6.138;2023-05-29T03:14:55;13.60;99.90
37646;DHT22;23489;49.600;6.138;2023-05-29T03:17:22;13.60;99.90
37646;DHT22;23489;49.600;6.138;2023-05-29T03:19:47;13.60;99.90
37646;DHT22;23489;49.600;6.138;2023-05-29T03:22:13;13.50;99.90
37646;DHT22;23489;49.600;6.138;2023-05-29T03:24:40;13.50;99.90
37646;DHT22;23489;49.600;6.138;2023-05-29T03:27:06;13.50;99.90
37646;DHT22;23489;49.600;6.138;2023-05-29T03:29:32;13.50;99.90
37646;DHT22;23489;49.600;6.138;2023-05-29T03:31:58;13.50;99.90
37646;DHT22;23489;49.600;6.138;2023-05-29T03:34:28;13.50;99.90
37646;DHT22;23489;49.600;6.138;2023-05-29T03:36:56;13.50;99.90
37646;DHT22;23489;49.600;6.138;2023-05-29T03:39:23;13.40;99.90
37646;DHT22;23489;49.600;6.138;2023-05-29T03:41:48;13.40;99.90
37646;DHT22;23489;49.600;6.138;2023-05-29T03:44:15;13.40;99.90
37646;DHT22;23489;49.600;6.138;2023-05-29T03:46:41;13.40;99.90
37646;DHT22;23489;49.600;6.138;2023-05-29T03:49:06;13.40;99.90
37646;DHT22;23489;49.600;6.138;2023-05-29T03:51:34;13.40;99.90
37646;DHT22;23489;49.600;6.138;2023-05-29T03:54:00;13.40;99.90
37646;DHT22;23489;49.600;6.138;2023-05-29T03:56:26;13.40;99.90
37646;DHT22;23489;49.600;6.138;2023-05-29T03:58:52;13.40;99.90
37646;DHT22;23489;49.600;6.138;2023-05-29T04:01:19;13.50;99.90
37646;DHT22;23489;49.600;6.138;2023-05-29T04:03:44;13.50;99.90
37646;DHT22;23489;49.600;6.138;2023-05-29T04:06:13;13.50;99.90
37646;DHT22;23489;49.600;6.138;2023-05-29T04:08:39;13.50;99.90
37646;DHT22;23489;49.600;6.138;2023-05-29T04:11:05;13.50;99.90
37646;DHT22;23489;49.600;6.138;2023-05-29T04:13:30;13.50;99.90
37646;DHT22;23489;49.600;6.138;2023-05-29T04:15:56;13.50;99.90
37646;DHT22;23489;49.600;6.138;2023-05-29T04:18:21;13.60;99.90
37646;DHT22;23489;49.600;6.138;2023-05-29T04:20:47;13.60;99.90
37646;DHT22;23489;49.600;6.138;2023-05-29T04:23:13;13.60;99.90
37646;DHT22;23489;49.600;6.138;2023-05-29T04:25:39;13.60;99.90
37646;DHT22;23489;49.600;6.138;2023-05-29T04:28:05;13.70;99.90
37646;DHT22;23489;49.600;6.138;2023-05-29T04:30:31;13.70;99.90
37646;DHT22;23489;49.600;6.138;2023-05-29T04:32:59;13.80;99.90
37646;DHT22;23489;49.600;6.138;2023-05-29T04:35:25;13.90;99.90
37646;DHT22;23489;49.600;6.138;2023-05-29T04:37:57;14.00;99.90
37646;DHT22;23489;49.600;6.138;2023-05-29T04:40:26;14.10;99.90
37646;DHT22;23489;49.600;6.138;2023-05-29T04:42:52;14.20;99.90
37646;DHT22;23489;49.600;6.138;2023-05-29T04:45:21;14.30;99.90
37646;DHT22;23489;49.600;6.138;2023-05-29T04:47:47;14.30;99.90
37646;DHT22;23489;49.600;6.138;2023-05-29T04:50:14;14.30;99.90
37646;DHT22;23489;49.600;6.138;2023-05-29T04:52:42;14.40;99.90
37646;DHT22;23489;49.600;6.138;2023-05-29T04:55:10;14.50;99.90
37646;DHT22;23489;49.600;6.138;2023-05-29T04:57:36;14.70;99.90
37646;DHT22;23489;49.600;6.138;2023-05-29T05:00:03;14.90;99.90
37646;DHT22;23489;49.600;6.138;2023-05-29T05:02:35;15.00;99.90
37646;DHT22;23489;49.600;6.138;2023-05-29T05:05:01;15.30;99.90
37646;DHT22;23489;49.600;6.138;2023-05-29T05:07:27;15.40;99.90
37646;DHT22;23489;49.600;6.138;2023-05-29T05:09:53;15.60;99.90
37646;DHT22;23489;49.600;6.138;2023-05-29T05:12:22;15.80;99.90
37646;DHT22;23489;49.600;6.138;2023-05-29T05:14:48;15.80;99.90
37646;DHT22;23489;49.600;6.138;2023-05-29T05:17:13;15.90;99.90
37646;DHT22;23489;49.600;6.138;2023-05-29T05:19:40;15.90;99.90
37646;DHT22;23489;49.600;6.138;2023-05-29T05:22:06;15.90;99.90
37646;DHT22;23489;49.600;6.138;2023-05-29T05:24:32;15.90;99.90
37646;DHT22;23489;49.600;6.138;2023-05-29T05:26:57;16.00;99.90
37646;DHT22;23489;49.600;6.138;2023-05-29T05:29:23;16.20;99.90
37646;DHT22;23489;49.600;6.138;2023-05-29T05:31:49;16.20;99.90
37646;DHT22;23489;49.600;6.138;2023-05-29T05:34:14;16.20;99.90
37646;DHT22;23489;49.600;6.138;2023-05-29T05:36:42;16.20;99.90
37646;DHT22;23489;49.600;6.138;2023-05-29T05:39:13;16.20;99.90
37646;DHT22;23489;49.600;6.138;2023-05-29T05:41:40;16.20;99.90
37646;DHT22;23489;49.600;6.138;2023-05-29T05:44:05;16.30;99.90
37646;DHT22;23489;49.600;6.138;2023-05-29T05:46:43;16.40;99.90
37646;DHT22;23489;49.600;6.138;2023-05-29T05:49:09;16.50;99.90
37646;DHT22;23489;49.600;6.138;2023-05-29T05:51:35;16.50;99.90
37646;DHT22;23489;49.600;6.138;2023-05-29T05:54:01;16.50;99.90
37646;DHT22;23489;49.600;6.138;2023-05-29T05:56:28;16.60;99.90
37646;DHT22;23489;49.600;6.138;2023-05-29T05:58:53;16.60;99.90
37646;DHT22;23489;49.600;6.138;2023-05-29T06:01:19;16.80;99.90
37646;DHT22;23489;49.600;6.138;2023-05-29T06:03:45;17.00;99.90
37646;DHT22;23489;49.600;6.138;2023-05-29T06:06:11;17.10;99.90
37646;DHT22;23489;49.600;6.138;2023-05-29T06:08:39;17.20;99.90
37646;DHT22;23489;49.600;6.138;2023-05-29T06:11:07;17.40;99.90
37646;DHT22;23489;49.600;6.138;2023-05-29T06:13:35;17.90;99.90
37646;DHT22;23489;49.600;6.138;2023-05-29T06:16:08;18.60;99.90
37646;DHT22;23489;49.600;6.138;2023-05-29T06:18:34;19.60;99.90
37646;DHT22;23489;49.600;6.138;2023-05-29T06:21:00;20.80;98.00
37646;DHT22;23489;49.600;6.138;2023-05-29T06:23:27;22.20;95.50
37646;DHT22;23489;49.600;6.138;2023-05-29T06:25:53;23.00;92.80
37646;DHT22;23489;49.600;6.138;2023-05-29T06:28:19;23.70;91.00
37646;DHT22;23489;49.600;6.138;2023-05-29T06:30:45;24.20;89.20
37646;DHT22;23489;49.600;6.138;2023-05-29T06:33:11;24.20;87.90
37646;DHT22;23489;49.600;6.138;2023-05-29T06:35:38;24.60;86.90
37646;DHT22;23489;49.600;6.138;2023-05-29T06:38:05;24.50;86.30
37646;DHT22;23489;49.600;6.138;2023-05-29T06:40:31;25.20;83.70
37646;DHT22;23489;49.600;6.138;2023-05-29T06:42:56;26.00;80.60
37646;DHT22;23489;49.600;6.138;2023-05-29T06:45:36;26.40;79.30
37646;DHT22;23489;49.600;6.138;2023-05-29T06:48:01;26.20;79.20
37646;DHT22;23489;49.600;6.138;2023-05-29T06:50:27;26.70;77.70
37646;DHT22;23489;49.600;6.138;2023-05-29T06:52:53;26.70;77.00
37646;DHT22;23489;49.600;6.138;2023-05-29T06:55:26;27.00;75.10
37646;DHT22;23489;49.600;6.138;2023-05-29T06:57:55;27.60;73.60
37646;DHT22;23489;49.600;6.138;2023-05-29T07:00:22;28.20;70.80
37646;DHT22;23489;49.600;6.138;2023-05-29T07:02:57;28.10;70.80
37646;DHT22;23489;49.600;6.138;2023-05-29T07:05:23;28.40;69.60
37646;DHT22;23489;49.600;6.138;2023-05-29T07:07:49;28.30;70.10
37646;DHT22;23489;49.600;6.138;2023-05-29T07:10:15;28.20;69.00
37646;DHT22;23489;49.600;6.138;2023-05-29T07:12:41;28.60;67.50
37646;DHT22;23489;49.600;6.138;2023-05-29T07:15:07;28.20;67.30
37646;DHT22;23489;49.600;6.138;2023-05-29T07:17:33;27.50;68.80
37646;DHT22;23489;49.600;6.138;2023-05-29T07:20:09;27.40;69.30
37646;DHT22;23489;49.600;6.138;2023-05-29T07:22:37;27.00;69.70
37646;DHT22;23489;49.600;6.138;2023-05-29T07:25:03;26.80;70.60
37646;DHT22;23489;49.600;6.138;2023-05-29T07:27:29;26.90;70.10
37646;DHT22;23489;49.600;6.138;2023-05-29T07:29:55;26.90;70.50
37646;DHT22;23489;49.600;6.138;2023-05-29T07:32:20;27.90;68.40
37646;DHT22;23489;49.600;6.138;2023-05-29T07:34:47;28.30;66.60
37646;DHT22;23489;49.600;6.138;2023-05-29T07:37:15;28.10;67.10
37646;DHT22;23489;49.600;6.138;2023-05-29T07:39:42;28.10;67.10
37646;DHT22;23489;49.600;6.138;2023-05-29T07:42:40;28.10;67.00
37646;DHT22;23489;49.600;6.138;2023-05-29T07:45:07;28.60;66.60
37646;DHT22;23489;49.600;6.138;2023-05-29T07:47:33;29.30;64.50
37646;DHT22;23489;49.600;6.138;2023-05-29T07:49:59;29.70;63.40
37646;DHT22;23489;49.600;6.138;2023-05-29T07:52:26;29.20;63.70
37646;DHT22;23489;49.600;6.138;2023-05-29T07:54:53;29.10;63.90
37646;DHT22;23489;49.600;6.138;2023-05-29T07:57:19;29.50;63.50
37646;DHT22;23489;49.600;6.138;2023-05-29T07:59:46;30.00;62.40
37646;DHT22;23489;49.600;6.138;2023-05-29T08:02:14;30.50;61.70
37646;DHT22;23489;49.600;6.138;2023-05-29T08:04:55;30.00;62.10
37646;DHT22;23489;49.600;6.138;2023-05-29T08:07:22;31.20;59.80
37646;DHT22;23489;49.600;6.138;2023-05-29T08:09:48;30.70;59.70
37646;DHT22;23489;49.600;6.138;2023-05-29T08:12:14;30.80;59.50
37646;DHT22;23489;49.600;6.138;2023-05-29T08:14:40;31.00;59.10
37646;DHT22;23489;49.600;6.138;2023-05-29T08:17:06;30.80;58.40
37646;DHT22;23489;49.600;6.138;2023-05-29T08:19:31;31.40;57.70
37646;DHT22;23489;49.600;6.138;2023-05-29T08:21:57;31.10;57.60
37646;DHT22;23489;49.600;6.138;2023-05-29T08:24:22;31.60;56.30
37646;DHT22;23489;49.600;6.138;2023-05-29T08:26:48;31.60;55.90
37646;DHT22;23489;49.600;6.138;2023-05-29T08:29:13;31.30;56.20
37646;DHT22;23489;49.600;6.138;2023-05-29T08:31:39;30.70;57.30
37646;DHT22;23489;49.600;6.138;2023-05-29T08:34:05;30.70;56.80
37646;DHT22;23489;49.600;6.138;2023-05-29T08:36:32;31.30;56.30
37646;DHT22;23489;49.600;6.138;2023-05-29T08:38:58;31.30;55.50
37646;DHT22;23489;49.600;6.138;2023-05-29T08:41:28;31.00;54.20
37646;DHT22;23489;49.600;6.138;2023-05-29T08:43:58;30.40;55.30
37646;DHT22;23489;49.600;6.138;2023-05-29T08:46:25;29.90;55.70
37646;DHT22;23489;49.600;6.138;2023-05-29T08:48:50;29.90;56.00
37646;DHT22;23489;49.600;6.138;2023-05-29T08:51:20;29.30;56.90
37646;DHT22;23489;49.600;6.138;2023-05-29T08:53:47;29.30;57.50
37646;DHT22;23489;49.600;6.138;2023-05-29T08:56:13;30.30;57.10
37646;DHT22;23489;49.600;6.138;2023-05-29T08:58:38;30.90;55.20
37646;DHT22;23489;49.600;6.138;2023-05-29T09:01:04;31.40;54.80
37646;DHT22;23489;49.600;6.138;2023-05-29T09:03:30;31.80;54.20
37646;DHT22;23489;49.600;6.138;2023-05-29T09:05:59;31.80;53.60
37646;DHT22;23489;49.600;6.138;2023-05-29T09:08:25;31.50;53.30
37646;DHT22;23489;49.600;6.138;2023-05-29T09:10:53;31.10;53.20
37646;DHT22;23489;49.600;6.138;2023-05-29T09:13:20;30.90;53.70
37646;DHT22;23489;49.600;6.138;2023-05-29T09:15:46;30.90;53.60
37646;DHT22;23489;49.600;6.138;2023-05-29T09:18:11;30.40;54.70
37646;DHT22;23489;49.600;6.138;2023-05-29T09:20:37;31.00;54.20
37646;DHT22;23489;49.600;6.138;2023-05-29T09:23:03;31.10;53.40
37646;DHT22;23489;49.600;6.138;2023-05-29T09:25:30;31.20;53.30
37646;DHT22;23489;49.600;6.138;2023-05-29T09:28:01;30.20;53.40
37646;DHT22;23489;49.600;6.138;2023-05-29T09:30:46;29.90;53.70
37646;DHT22;23489;49.600;6.138;2023-05-29T09:33:16;30.00;53.50
37646;DHT22;23489;49.600;6.138;2023-05-29T09:35:42;30.40;53.20
37646;DHT22;23489;49.600;6.138;2023-05-29T09:38:10;30.10;53.30
37646;DHT22;23489;49.600;6.138;2023-05-29T09:40:38;30.20;52.80
37646;DHT22;23489;49.600;6.138;2023-05-29T09:43:04;30.30;52.70
37646;DHT22;23489;49.600;6.138;2023-05-29T09:45:30;30.60;52.30
37646;DHT22;23489;49.600;6.138;2023-05-29T09:47:56;30.40;52.00
37646;DHT22;23489;49.600;6.138;2023-05-29T09:50:26;30.60;51.10
37646;DHT22;23489;49.600;6.138;2023-05-29T09:52:51;30.50;51.20
37646;DHT22;23489;49.600;6.138;2023-05-29T09:55:23;30.60;51.60
37646;DHT22;23489;49.600;6.138;2023-05-29T09:57:48;30.60;51.30
37646;DHT22;23489;49.600;6.138;2023-05-29T10:00:15;31.10;49.50
37646;DHT22;23489;49.600;6.138;2023-05-29T10:02:42;31.20;50.40
37646;DHT22;23489;49.600;6.138;2023-05-29T10:05:09;30.90;50.30
37646;DHT22;23489;49.600;6.138;2023-05-29T10:07:36;30.40;51.60
37646;DHT22;23489;49.600;6.138;2023-05-29T10:10:04;30.40;51.80
37646;DHT22;23489;49.600;6.138;2023-05-29T10:12:37;30.70;51.80
37646;DHT22;23489;49.600;6.138;2023-05-29T10:15:05;30.80;51.50
37646;DHT22;23489;49.600;6.138;2023-05-29T10:17:33;31.30;50.50
37646;DHT22;23489;49.600;6.138;2023-05-29T10:20:00;31.00;50.60
37646;DHT22;23489;49.600;6.138;2023-05-29T10:22:27;30.40;51.70
37646;DHT22;23489;49.600;6.138;2023-05-29T10:24:54;30.30;51.60
37646;DHT22;23489;49.600;6.138;2023-05-29T10:27:21;30.30;50.60
37646;DHT22;23489;49.600;6.138;2023-05-29T10:29:48;30.10;51.30
37646;DHT22;23489;49.600;6.138;2023-05-29T10:37:33;29.50;52.60
37646;DHT22;23489;49.600;6.138;2023-05-29T10:40:05;29.60;52.60
37646;DHT22;23489;49.600;6.138;2023-05-29T10:42:49;29.70;52.60
37646;DHT22;23489;49.600;6.138;2023-05-29T10:50:46;30.10;51.20
37646;DHT22;23489;49.600;6.138;2023-05-29T10:53:26;29.70;51.80
37646;DHT22;23489;49.600;6.138;2023-05-29T10:55:56;30.50;50.80
37646;DHT22;23489;49.600;6.138;2023-05-29T10:58:22;30.70;50.70
37646;DHT22;23489;49.600;6.138;2023-05-29T11:00:51;30.40;50.50
37646;DHT22;23489;49.600;6.138;2023-05-29T11:03:24;29.50;52.00
37646;DHT22;23489;49.600;6.138;2023-05-29T11:05:56;28.30;53.50
37646;DHT22;23489;49.600;6.138;2023-05-29T11:08:39;26.80;55.90
37646;DHT22;23489;49.600;6.138;2023-05-29T11:11:07;25.70;58.10
37646;DHT22;23489;49.600;6.138;2023-05-29T11:13:36;25.20;57.70
37646;DHT22;23489;49.600;6.138;2023-05-29T11:18:38;24.80;57.40
37646;DHT22;23489;49.600;6.138;2023-05-29T11:21:03;24.70;58.60
37646;DHT22;23489;49.600;6.138;2023-05-29T11:23:31;24.60;59.00
37646;DHT22;23489;49.600;6.138;2023-05-29T11:25:57;24.50;58.90
37646;DHT22;23489;49.600;6.138;2023-05-29T11:28:24;24.60;58.50
37646;DHT22;23489;49.600;6.138;2023-05-29T11:30:50;24.50;57.30
37646;DHT22;23489;49.600;6.138;2023-05-29T11:33:20;24.60;57.20
37646;DHT22;23489;49.600;6.138;2023-05-29T11:35:50;24.60;57.30
37646;DHT22;23489;49.600;6.138;2023-05-29T11:38:17;24.70;56.90
37646;DHT22;23489;49.600;6.138;2023-05-29T11:40:43;24.80;57.20
37646;DHT22;23489;49.600;6.138;2023-05-29T11:43:12;24.60;57.40
37646;DHT22;23489;49.600;6.138;2023-05-29T11:45:37;24.60;57.90
37646;DHT22;23489;49.600;6.138;2023-05-29T11:48:03;24.50;57.60
37646;DHT22;23489;49.600;6.138;2023-05-29T11:50:33;24.60;57.60
37646;DHT22;23489;49.600;6.138;2023-05-29T11:53:00;24.50;57.10
37646;DHT22;23489;49.600;6.138;2023-05-29T11:55:27;24.40;57.10
37646;DHT22;23489;49.600;6.138;2023-05-29T11:58:03;24.40;57.20
37646;DHT22;23489;49.600;6.138;2023-05-29T12:00:34;24.40;57.10
37646;DHT22;23489;49.600;6.138;2023-05-29T12:03:01;24.50;57.80
37646;DHT22;23489;49.600;6.138;2023-05-29T12:05:29;24.40;57.10
37646;DHT22;23489;49.600;6.138;2023-05-29T12:07:55;24.20;58.20
37646;DHT22;23489;49.600;6.138;2023-05-29T12:10:23;24.20;58.20
37646;DHT22;23489;49.600;6.138;2023-05-29T12:12:53;24.10;58.00
37646;DHT22;23489;49.600;6.138;2023-05-29T12:15:19;24.00;58.30
37646;DHT22;23489;49.600;6.138;2023-05-29T12:17:45;23.90;58.80
37646;DHT22;23489;49.600;6.138;2023-05-29T12:20:12;24.00;58.20
37646;DHT22;23489;49.600;6.138;2023-05-29T12:22:39;24.20;58.50
37646;DHT22;23489;49.600;6.138;2023-05-29T12:25:09;24.10;57.90
37646;DHT22;23489;49.600;6.138;2023-05-29T12:27:37;24.10;58.80
37646;DHT22;23489;49.600;6.138;2023-05-29T12:30:07;24.10;58.60
37646;DHT22;23489;49.600;6.138;2023-05-29T12:35:09;24.20;57.40
37646;DHT22;23489;49.600;6.138;2023-05-29T12:37:35;24.40;58.00
37646;DHT22;23489;49.600;6.138;2023-05-29T12:40:10;24.40;57.90
37646;DHT22;23489;49.600;6.138;2023-05-29T12:42:39;24.40;57.90
37646;DHT22;23489;49.600;6.138;2023-05-29T12:45:04;24.40;57.30
37646;DHT22;23489;49.600;6.138;2023-05-29T12:47:32;24.40;57.30
37646;DHT22;23489;49.600;6.138;2023-05-29T12:49:57;24.40;57.90
37646;DHT22;23489;49.600;6.138;2023-05-29T12:52:23;24.40;57.80
37646;DHT22;23489;49.600;6.138;2023-05-29T12:54:49;24.30;57.90
37646;DHT22;23489;49.600;6.138;2023-05-29T12:57:14;24.30;57.90
37646;DHT22;23489;49.600;6.138;2023-05-29T12:59:40;24.40;58.00
37646;DHT22;23489;49.600;6.138;2023-05-29T13:02:06;24.40;58.10
37646;DHT22;23489;49.600;6.138;2023-05-29T13:04:33;24.50;57.40
37646;DHT22;23489;49.600;6.138;2023-05-29T13:06:59;24.40;57.90
37646;DHT22;23489;49.600;6.138;2023-05-29T13:09:25;24.40;58.20
37646;DHT22;23489;49.600;6.138;2023-05-29T13:11:50;24.40;58.30
37646;DHT22;23489;49.600;6.138;2023-05-29T13:14:16;24.50;58.40
37646;DHT22;23489;49.600;6.138;2023-05-29T13:16:41;24.60;58.50
37646;DHT22;23489;49.600;6.138;2023-05-29T13:19:07;24.40;58.50
37646;DHT22;23489;49.600;6.138;2023-05-29T13:21:32;24.30;58.40
37646;DHT22;23489;49.600;6.138;2023-05-29T13:23:58;24.20;58.70
37646;DHT22;23489;49.600;6.138;2023-05-29T13:26:23;24.20;58.80
37646;DHT22;23489;49.600;6.138;2023-05-29T13:28:49;24.30;59.00
37646;DHT22;23489;49.600;6.138;2023-05-29T13:31:15;24.30;59.40
37646;DHT22;23489;49.600;6.138;2023-05-29T13:33:40;24.40;58.90
37646;DHT22;23489;49.600;6.138;2023-05-29T13:36:06;24.60;58.80
37646;DHT22;23489;49.600;6.138;2023-05-29T13:38:32;24.60;59.20
37646;DHT22;23489;49.600;6.138;2023-05-29T13:40:57;24.80;59.30
37646;DHT22;23489;49.600;6.138;2023-05-29T13:43:23;24.70;59.10
37646;DHT22;23489;49.600;6.138;2023-05-29T13:45:48;24.40;59.20
37646;DHT22;23489;49.600;6.138;2023-05-29T13:48:14;24.30;59.40
37646;DHT22;23489;49.600;6.138;2023-05-29T13:50:39;24.10;59.70
37646;DHT22;23489;49.600;6.138;2023-05-29T13:53:05;24.20;60.70
37646;DHT22;23489;49.600;6.138;2023-05-29T13:55:30;24.30;60.50
37646;DHT22;23489;49.600;6.138;2023-05-29T13:57:56;24.50;60.50
37646;DHT22;23489;49.600;6.138;2023-05-29T14:00:23;24.60;60.00
37646;DHT22;23489;49.600;6.138;2023-05-29T14:02:48;24.60;59.90
37646;DHT22;23489;49.600;6.138;2023-05-29T14:05:14;24.60;60.20
37646;DHT22;23489;49.600;6.138;2023-05-29T14:07:39;24.60;60.60
37646;DHT22;23489;49.600;6.138;2023-05-29T14:10:05;24.70;60.50
37646;DHT22;23489;49.600;6.138;2023-05-29T14:12:31;24.70;60.70
37646;DHT22;23489;49.600;6.138;2023-05-29T14:14:56;24.50;61.00
37646;DHT22;23489;49.600;6.138;2023-05-29T14:17:22;24.40;61.60
37646;DHT22;23489;49.600;6.138;2023-05-29T14:19:47;24.40;61.50
37646;DHT22;23489;49.600;6.138;2023-05-29T14:22:13;24.40;61.50
37646;DHT22;23489;49.600;6.138;2023-05-29T14:24:38;24.40;61.30
37646;DHT22;23489;49.600;6.138;2023-05-29T14:27:05;24.40;61.20
37646;DHT22;23489;49.600;6.138;2023-05-29T14:29:31;24.40;61.70
37646;DHT22;23489;49.600;6.138;2023-05-29T14:31:56;24.50;61.90
37646;DHT22;23489;49.600;6.138;2023-05-29T14:34:22;24.70;61.30
37646;DHT22;23489;49.600;6.138;2023-05-29T14:36:47;24.70;61.80
37646;DHT22;23489;49.600;6.138;2023-05-29T14:39:13;24.70;61.60
37646;DHT22;23489;49.600;6.138;2023-05-29T14:41:38;24.70;61.50
37646;DHT22;23489;49.600;6.138;2023-05-29T14:44:04;24.80;62.20
37646;DHT22;23489;49.600;6.138;2023-05-29T14:46:30;24.60;62.40
37646;DHT22;23489;49.600;6.138;2023-05-29T14:48:58;24.60;62.60
37646;DHT22;23489;49.600;6.138;2023-05-29T14:51:23;24.60;62.10
37646;DHT22;23489;49.600;6.138;2023-05-29T14:53:49;24.50;62.20
37646;DHT22;23489;49.600;6.138;2023-05-29T14:56:15;24.30;62.10
37646;DHT22;23489;49.600;6.138;2023-05-29T14:58:42;24.20;62.50
37646;DHT22;23489;49.600;6.138;2023-05-29T15:01:07;24.30;62.80
37646;DHT22;23489;49.600;6.138;2023-05-29T15:03:33;24.20;63.00
37646;DHT22;23489;49.600;6.138;2023-05-29T15:06:01;24.20;63.40
37646;DHT22;23489;49.600;6.138;2023-05-29T15:08:26;24.10;63.40
37646;DHT22;23489;49.600;6.138;2023-05-29T15:10:53;24.10;62.70
37646;DHT22;23489;49.600;6.138;2023-05-29T15:13:18;24.00;62.70
37646;DHT22;23489;49.600;6.138;2023-05-29T15:15:45;24.10;62.70
37646;DHT22;23489;49.600;6.138;2023-05-29T15:18:10;24.10;62.30
37646;DHT22;23489;49.600;6.138;2023-05-29T15:20:36;24.10;62.30
37646;DHT22;23489;49.600;6.138;2023-05-29T15:23:01;24.10;62.80
37646;DHT22;23489;49.600;6.138;2023-05-29T15:25:27;24.10;63.30
37646;DHT22;23489;49.600;6.138;2023-05-29T15:27:52;24.20;64.00
37646;DHT22;23489;49.600;6.138;2023-05-29T15:30:18;24.20;63.30
37646;DHT22;23489;49.600;6.138;2023-05-29T15:32:44;24.00;63.80
37646;DHT22;23489;49.600;6.138;2023-05-29T15:35:11;23.90;64.10
37646;DHT22;23489;49.600;6.138;2023-05-29T15:37:37;23.80;64.30
37646;DHT22;23489;49.600;6.138;2023-05-29T15:40:03;23.80;64.80
37646;DHT22;23489;49.600;6.138;2023-05-29T15:42:28;23.80;64.70
37646;DHT22;23489;49.600;6.138;2023-05-29T15:44:54;23.80;64.30
37646;DHT22;23489;49.600;6.138;2023-05-29T15:47:19;23.70;64.50
37646;DHT22;23489;49.600;6.138;2023-05-29T15:49:45;23.70;64.90
37646;DHT22;23489;49.600;6.138;2023-05-29T15:52:12;23.70;64.70